sensor_id;sensor_type;location;lat;lon;timestamp;pressure;altitude;pressure_sealevel;temperature;humidity
35878;BME280;21982;49.804;24.072;2023-04-23T00:00:47;96968.66;;;11.05;39.56
35878;BME280;21982;49.804;24.072;2023-04-23T00:03:13;97034.81;;;11.39;39.58
35878;BME280;21982;49.804;24.072;2023-04-23T00:05:39;97033.81;;;11.40;39.56
35878;BME280;21982;49.804;24.072;2023-04-23T00:08:06;97076.09;;;11.68;39.53
35878;BME280;21982;49.804;24.072;2023-04-23T00:10:32;97060.97;;;11.56;39.47
35878;BME280;21982;49.804;24.072;2023-04-23T00:12:58;97028.91;;;11.37;39.52
35878;BME280;21982;49.804;24.072;2023-04-23T00:15:26;97071.38;;;11.64;39.61
35878;BME280;21982;49.804;24.072;2023-04-23T00:17:51;97110.66;;;11.88;39.56
35878;BME280;21982;49.804;24.072;2023-04-23T00:20:16;96985.38;;;11.05;39.61
35878;BME280;21982;49.804;24.072;2023-04-23T00:22:42;97057.47;;;11.49;39.66
35878;BME280;21982;49.804;24.072;2023-04-23T00:25:09;97035.19;;;11.30;39.83
35878;BME280;21982;49.804;24.072;2023-04-23T00:27:35;97111.25;;;11.77;40.02
35878;BME280;21982;49.804;24.072;2023-04-23T00:30:01;97016.78;;;11.15;39.97
35878;BME280;21982;49.804;24.072;2023-04-23T00:32:27;97108.78;;;11.75;39.83
35878;BME280;21982;49.804;24.072;2023-04-23T00:34:52;97108.16;;;11.80;39.76
35878;BME280;21982;49.804;24.072;2023-04-23T00:37:19;97111.66;;;11.87;39.33
35878;BME280;21982;49.804;24.072;2023-04-23T00:39:44;97032.00;;;11.54;39.25
35878;BME280;21982;49.804;24.072;2023-04-23T00:42:10;96939.28;;;11.00;39.38
35878;BME280;21982;49.804;24.072;2023-04-23T00:44:39;97093.34;;;12.12;39.23
35878;BME280;21982;49.804;24.072;2023-04-23T00:47:08;97097.41;;;12.15;39.09
35878;BME280;21982;49.804;24.072;2023-04-23T00:49:35;97060.47;;;11.93;39.22
35878;BME280;21982;49.804;24.072;2023-04-23T00:52:00;97052.91;;;11.90;39.33
35878;BME280;21982;49.804;24.072;2023-04-23T00:54:26;97009.94;;;11.54;39.39
35878;BME280;21982;49.804;24.072;2023-04-23T00:56:52;97097.22;;;12.10;39.29
35878;BME280;21982;49.804;24.072;2023-04-23T00:59:19;97082.72;;;12.05;39.47
35878;BME280;21982;49.804;24.072;2023-04-23T01:01:44;96966.25;;;11.23;39.45
35878;BME280;21982;49.804;24.072;2023-04-23T01:04:12;97088.25;;;12.11;39.23
35878;BME280;21982;49.804;24.072;2023-04-23T01:06:39;97086.41;;;12.11;39.28
35878;BME280;21982;49.804;24.072;2023-04-23T01:09:06;96794.03;;;10.23;39.27
35878;BME280;21982;49.804;24.072;2023-04-23T01:11:32;96994.44;;;11.51;39.42
35878;BME280;21982;49.804;24.072;2023-04-23T01:16:29;97089.25;;;12.03;39.46
35878;BME280;21982;49.804;24.072;2023-04-23T01:18:55;97083.13;;;12.02;39.29
35878;BME280;21982;49.804;24.072;2023-04-23T01:21:21;96963.81;;;11.28;39.42
35878;BME280;21982;49.804;24.072;2023-04-23T01:23:48;97031.19;;;11.60;39.03
35878;BME280;21982;49.804;24.072;2023-04-23T01:26:13;97050.00;;;11.79;39.10
35878;BME280;21982;49.804;24.072;2023-04-23T01:28:40;97085.19;;;12.07;38.96
35878;BME280;21982;49.804;24.072;2023-04-23T01:31:07;97036.53;;;11.73;38.92
35878;BME280;21982;49.804;24.072;2023-04-23T01:33:32;97047.59;;;11.77;39.06
35878;BME280;21982;49.804;24.072;2023-04-23T01:35:58;97070.44;;;11.85;38.85
35878;BME280;21982;49.804;24.072;2023-04-23T01:38:27;97056.72;;;11.74;38.91
35878;BME280;21982;49.804;24.072;2023-04-23T01:40:54;97081.25;;;11.83;39.17
35878;BME280;21982;49.804;24.072;2023-04-23T01:43:22;97101.28;;;11.92;39.31
35878;BME280;21982;49.804;24.072;2023-04-23T01:45:48;97072.44;;;11.69;39.24
35878;BME280;21982;49.804;24.072;2023-04-23T01:48:14;97043.81;;;11.52;39.23
35878;BME280;21982;49.804;24.072;2023-04-23T01:50:40;97059.34;;;11.61;39.14
35878;BME280;21982;49.804;24.072;2023-04-23T01:53:06;97102.88;;;11.87;39.29
35878;BME280;21982;49.804;24.072;2023-04-23T01:55:33;97101.88;;;11.88;39.27
35878;BME280;21982;49.804;24.072;2023-04-23T01:57:58;97103.91;;;11.86;39.23
35878;BME280;21982;49.804;24.072;2023-04-23T02:00:24;97110.00;;;11.80;39.29
35878;BME280;21982;49.804;24.072;2023-04-23T02:02:49;97099.19;;;11.74;39.54
35878;BME280;21982;49.804;24.072;2023-04-23T02:05:18;97095.09;;;11.72;39.58
35878;BME280;21982;49.804;24.072;2023-04-23T02:07:46;97031.91;;;11.28;39.63
35878;BME280;21982;49.804;24.072;2023-04-23T02:10:12;97091.78;;;11.63;39.96
35878;BME280;21982;49.804;24.072;2023-04-23T02:12:38;97094.03;;;11.60;39.89
35878;BME280;21982;49.804;24.072;2023-04-23T02:15:05;97100.16;;;11.60;39.92
35878;BME280;21982;49.804;24.072;2023-04-23T02:17:31;97021.25;;;11.15;39.83
35878;BME280;21982;49.804;24.072;2023-04-23T02:19:57;97005.13;;;11.03;40.03
35878;BME280;21982;49.804;24.072;2023-04-23T02:22:22;97044.94;;;11.23;40.05
35878;BME280;21982;49.804;24.072;2023-04-23T02:24:50;97091.56;;;11.58;40.24
35878;BME280;21982;49.804;24.072;2023-04-23T02:27:15;97060.09;;;11.35;40.26
35878;BME280;21982;49.804;24.072;2023-04-23T02:29:41;97085.22;;;11.53;40.24
35878;BME280;21982;49.804;24.072;2023-04-23T02:32:06;97054.75;;;11.29;40.28
35878;BME280;21982;49.804;24.072;2023-04-23T02:34:32;96975.84;;;10.70;40.45
35878;BME280;21982;49.804;24.072;2023-04-23T02:36:57;97058.59;;;11.20;40.89
35878;BME280;21982;49.804;24.072;2023-04-23T02:39:23;97045.69;;;11.10;40.63
35878;BME280;21982;49.804;24.072;2023-04-23T02:41:48;97053.44;;;11.12;41.08
35878;BME280;21982;49.804;24.072;2023-04-23T02:44:13;97100.84;;;11.28;40.97
35878;BME280;21982;49.804;24.072;2023-04-23T02:46:39;97045.44;;;10.92;41.16
35878;BME280;21982;49.804;24.072;2023-04-23T02:49:04;97064.19;;;10.97;41.35
35878;BME280;21982;49.804;24.072;2023-04-23T02:51:31;97103.59;;;11.13;41.10
35878;BME280;21982;49.804;24.072;2023-04-23T02:53:57;97100.53;;;11.09;41.35
35878;BME280;21982;49.804;24.072;2023-04-23T02:56:22;97101.13;;;11.05;41.70
35878;BME280;21982;49.804;24.072;2023-04-23T02:58:47;97098.25;;;11.00;41.24
35878;BME280;21982;49.804;24.072;2023-04-23T03:01:13;97030.31;;;10.51;41.91
35878;BME280;21982;49.804;24.072;2023-04-23T03:03:39;97025.38;;;10.41;42.05
35878;BME280;21982;49.804;24.072;2023-04-23T03:06:05;97099.38;;;10.84;42.20
35878;BME280;21982;49.804;24.072;2023-04-23T03:08:31;96982.56;;;10.03;42.17
35878;BME280;21982;49.804;24.072;2023-04-23T03:10:57;96990.06;;;10.06;42.36
35878;BME280;21982;49.804;24.072;2023-04-23T03:13:23;97102.16;;;10.69;42.68
35878;BME280;21982;49.804;24.072;2023-04-23T03:15:49;97015.53;;;10.07;42.75
35878;BME280;21982;49.804;24.072;2023-04-23T03:18:15;97034.09;;;10.14;42.95
35878;BME280;21982;49.804;24.072;2023-04-23T03:20:40;97103.69;;;10.57;43.32
35878;BME280;21982;49.804;24.072;2023-04-23T03:23:06;97097.94;;;10.54;42.71
35878;BME280;21982;49.804;24.072;2023-04-23T03:25:32;97108.09;;;10.50;43.22
35878;BME280;21982;49.804;24.072;2023-04-23T03:27:58;96978.56;;;9.65;43.31
35878;BME280;21982;49.804;24.072;2023-04-23T03:30:23;97077.84;;;10.31;43.30
35878;BME280;21982;49.804;24.072;2023-04-23T03:32:49;97114.53;;;10.41;43.80
35878;BME280;21982;49.804;24.072;2023-04-23T03:35:15;97077.88;;;10.17;43.98
35878;BME280;21982;49.804;24.072;2023-04-23T03:37:40;97067.28;;;10.17;44.36
35878;BME280;21982;49.804;24.072;2023-04-23T03:40:07;97088.81;;;10.28;44.19
35878;BME280;21982;49.804;24.072;2023-04-23T03:42:33;97069.94;;;10.17;44.38
35878;BME280;21982;49.804;24.072;2023-04-23T03:44:59;97101.13;;;10.43;44.53
35878;BME280;21982;49.804;24.072;2023-04-23T03:47:25;97044.00;;;10.05;44.91
35878;BME280;21982;49.804;24.072;2023-04-23T03:49:51;97013.53;;;9.88;44.39
35878;BME280;21982;49.804;24.072;2023-04-23T03:52:17;97112.59;;;10.50;44.72
35878;BME280;21982;49.804;24.072;2023-04-23T03:54:42;97108.53;;;10.54;45.06
35878;BME280;21982;49.804;24.072;2023-04-23T03:57:08;97090.94;;;10.39;44.83
35878;BME280;21982;49.804;24.072;2023-04-23T03:59:33;97109.22;;;10.62;44.57
35878;BME280;21982;49.804;24.072;2023-04-23T04:01:59;97059.13;;;10.33;44.80
35878;BME280;21982;49.804;24.072;2023-04-23T04:04:24;97070.97;;;10.37;45.03
35878;BME280;21982;49.804;24.072;2023-04-23T04:06:50;97088.56;;;10.51;44.90
35878;BME280;21982;49.804;24.072;2023-04-23T04:09:15;97079.38;;;10.47;44.99
35878;BME280;21982;49.804;24.072;2023-04-23T04:11:41;97090.94;;;10.67;44.99
35878;BME280;21982;49.804;24.072;2023-04-23T04:14:06;97114.06;;;10.87;45.00
35878;BME280;21982;49.804;24.072;2023-04-23T04:16:31;97109.25;;;10.97;45.10
35878;BME280;21982;49.804;24.072;2023-04-23T04:18:57;97111.53;;;11.06;44.52
35878;BME280;21982;49.804;24.072;2023-04-23T04:21:22;97118.50;;;11.14;44.93
35878;BME280;21982;49.804;24.072;2023-04-23T04:23:47;97114.28;;;11.26;44.68
35878;BME280;21982;49.804;24.072;2023-04-23T04:26:13;97119.03;;;11.44;44.68
35878;BME280;21982;49.804;24.072;2023-04-23T04:28:39;97121.78;;;11.64;44.50
35878;BME280;21982;49.804;24.072;2023-04-23T04:31:05;97085.44;;;11.58;44.36
35878;BME280;21982;49.804;24.072;2023-04-23T04:33:31;97055.66;;;11.56;43.93
35878;BME280;21982;49.804;24.072;2023-04-23T04:35:58;97055.34;;;11.85;43.80
35878;BME280;21982;49.804;24.072;2023-04-23T04:38:24;97123.59;;;12.57;43.60
35878;BME280;21982;49.804;24.072;2023-04-23T04:40:50;97127.44;;;12.94;43.27
35878;BME280;21982;49.804;24.072;2023-04-23T04:43:15;97088.16;;;13.16;42.64
35878;BME280;21982;49.804;24.072;2023-04-23T04:45:41;97079.59;;;13.59;42.21
35878;BME280;21982;49.804;24.072;2023-04-23T04:48:07;96999.00;;;13.52;41.38
35878;BME280;21982;49.804;24.072;2023-04-23T04:50:33;97094.09;;;14.82;40.54
35878;BME280;21982;49.804;24.072;2023-04-23T04:52:58;97117.03;;;15.63;39.78
35878;BME280;21982;49.804;24.072;2023-04-23T04:55:24;97100.63;;;16.07;38.48
35878;BME280;21982;49.804;24.072;2023-04-23T04:57:49;97090.84;;;16.55;37.91
35878;BME280;21982;49.804;24.072;2023-04-23T05:00:22;97125.28;;;17.33;37.15
35878;BME280;21982;49.804;24.072;2023-04-23T05:02:49;97134.53;;;17.77;36.35
35878;BME280;21982;49.804;24.072;2023-04-23T05:05:15;97078.47;;;17.87;35.72
35878;BME280;21982;49.804;24.072;2023-04-23T05:07:40;97136.97;;;18.64;35.20
35878;BME280;21982;49.804;24.072;2023-04-23T05:10:06;97133.09;;;19.10;34.78
35878;BME280;21982;49.804;24.072;2023-04-23T05:12:31;97025.56;;;18.95;33.85
35878;BME280;21982;49.804;24.072;2023-04-23T05:14:57;97134.75;;;19.93;33.16
35878;BME280;21982;49.804;24.072;2023-04-23T05:17:22;97098.88;;;20.04;32.78
35878;BME280;21982;49.804;24.072;2023-04-23T05:19:47;97072.47;;;20.28;32.46
35878;BME280;21982;49.804;24.072;2023-04-23T05:22:14;97141.19;;;21.05;31.72
35878;BME280;21982;49.804;24.072;2023-04-23T05:24:39;97130.66;;;21.35;31.17
35878;BME280;21982;49.804;24.072;2023-04-23T05:27:04;97081.34;;;21.35;31.01
35878;BME280;21982;49.804;24.072;2023-04-23T05:29:30;97118.53;;;22.00;30.18
35878;BME280;21982;49.804;24.072;2023-04-23T05:31:55;97010.63;;;21.65;29.79
35878;BME280;21982;49.804;24.072;2023-04-23T05:34:21;97078.19;;;22.46;29.16
35878;BME280;21982;49.804;24.072;2023-04-23T05:36:46;97133.25;;;23.06;28.71
35878;BME280;21982;49.804;24.072;2023-04-23T05:39:11;97084.69;;;22.86;28.46
35878;BME280;21982;49.804;24.072;2023-04-23T05:41:37;97126.50;;;23.19;28.10
35878;BME280;21982;49.804;24.072;2023-04-23T05:44:02;97114.28;;;23.31;27.98
35878;BME280;21982;49.804;24.072;2023-04-23T05:46:28;97120.97;;;23.75;27.38
35878;BME280;21982;49.804;24.072;2023-04-23T05:48:53;97124.53;;;24.19;27.14
35878;BME280;21982;49.804;24.072;2023-04-23T05:51:18;97129.31;;;24.77;26.41
35878;BME280;21982;49.804;24.072;2023-04-23T05:53:44;97125.13;;;25.23;25.76
35878;BME280;21982;49.804;24.072;2023-04-23T05:56:09;97113.97;;;25.54;25.52
35878;BME280;21982;49.804;24.072;2023-04-23T05:58:35;97127.66;;;25.91;25.22
35878;BME280;21982;49.804;24.072;2023-04-23T06:01:00;97133.13;;;26.29;24.81
35878;BME280;21982;49.804;24.072;2023-04-23T06:03:26;97134.50;;;26.26;24.55
35878;BME280;21982;49.804;24.072;2023-04-23T06:05:51;97122.06;;;26.01;24.59
35878;BME280;21982;49.804;24.072;2023-04-23T06:08:17;97104.69;;;25.84;24.60
35878;BME280;21982;49.804;24.072;2023-04-23T06:10:50;97117.47;;;26.21;24.27
35878;BME280;21982;49.804;24.072;2023-04-23T06:13:16;97021.63;;;25.88;24.15
35878;BME280;21982;49.804;24.072;2023-04-23T06:15:41;97137.94;;;26.69;23.54
35878;BME280;21982;49.804;24.072;2023-04-23T06:18:06;96887.47;;;25.00;23.54
35878;BME280;21982;49.804;24.072;2023-04-23T06:20:32;97133.38;;;26.32;23.38
35878;BME280;21982;49.804;24.072;2023-04-23T06:22:57;97133.06;;;26.34;23.65
35878;BME280;21982;49.804;24.072;2023-04-23T06:27:59;97125.84;;;27.13;23.25
35878;BME280;21982;49.804;24.072;2023-04-23T06:30:24;97123.38;;;27.44;22.87
35878;BME280;21982;49.804;24.072;2023-04-23T06:32:49;97126.09;;;27.44;22.63
35878;BME280;21982;49.804;24.072;2023-04-23T06:35:15;97128.56;;;27.59;22.63
35878;BME280;21982;49.804;24.072;2023-04-23T06:37:40;97127.56;;;27.96;22.14
35878;BME280;21982;49.804;24.072;2023-04-23T06:40:06;97080.19;;;27.84;22.05
35878;BME280;21982;49.804;24.072;2023-04-23T06:42:31;97121.06;;;28.33;21.75
35878;BME280;21982;49.804;24.072;2023-04-23T06:44:57;96984.00;;;27.38;21.69
35878;BME280;21982;49.804;24.072;2023-04-23T06:47:23;97059.84;;;28.31;21.22
35878;BME280;21982;49.804;24.072;2023-04-23T06:49:49;97133.47;;;28.98;20.80
35878;BME280;21982;49.804;24.072;2023-04-23T06:52:15;97131.69;;;28.80;20.92
35878;BME280;21982;49.804;24.072;2023-04-23T06:54:40;97124.47;;;28.39;21.13
35878;BME280;21982;49.804;24.072;2023-04-23T06:57:05;97091.81;;;28.12;21.02
35878;BME280;21982;49.804;24.072;2023-04-23T06:59:31;97081.38;;;27.91;21.48
35878;BME280;21982;49.804;24.072;2023-04-23T07:01:56;97121.63;;;28.44;21.07
35878;BME280;21982;49.804;24.072;2023-04-23T07:04:21;97115.97;;;28.99;21.03
35878;BME280;21982;49.804;24.072;2023-04-23T07:06:47;97123.41;;;29.07;20.28
35878;BME280;21982;49.804;24.072;2023-04-23T07:09:12;97128.91;;;28.71;20.98
35878;BME280;21982;49.804;24.072;2023-04-23T07:11:37;96983.44;;;27.78;20.79
35878;BME280;21982;49.804;24.072;2023-04-23T07:14:03;97077.91;;;28.27;20.34
35878;BME280;21982;49.804;24.072;2023-04-23T07:16:28;97039.75;;;27.91;20.96
35878;BME280;21982;49.804;24.072;2023-04-23T07:18:57;97126.44;;;28.47;20.56
35878;BME280;21982;49.804;24.072;2023-04-23T07:21:23;97063.56;;;28.57;20.19
35878;BME280;21982;49.804;24.072;2023-04-23T07:23:52;97128.38;;;29.36;19.69
35878;BME280;21982;49.804;24.072;2023-04-23T07:26:17;97126.06;;;29.43;19.63
35878;BME280;21982;49.804;24.072;2023-04-23T07:28:42;97125.88;;;29.48;19.75
35878;BME280;21982;49.804;24.072;2023-04-23T07:31:08;97110.28;;;28.87;19.81
35878;BME280;21982;49.804;24.072;2023-04-23T07:33:34;97104.94;;;28.10;19.84
35878;BME280;21982;49.804;24.072;2023-04-23T07:36:00;97124.00;;;28.10;20.44
35878;BME280;21982;49.804;24.072;2023-04-23T07:38:25;96965.38;;;27.04;20.28
35878;BME280;21982;49.804;24.072;2023-04-23T07:40:50;96883.66;;;26.60;20.01
35878;BME280;21982;49.804;24.072;2023-04-23T07:43:16;97129.75;;;28.08;20.17
35878;BME280;21982;49.804;24.072;2023-04-23T07:45:43;97114.09;;;28.41;20.48
35878;BME280;21982;49.804;24.072;2023-04-23T07:48:08;97095.13;;;28.81;19.89
35878;BME280;21982;49.804;24.072;2023-04-23T07:50:33;97075.03;;;28.90;19.38
35878;BME280;21982;49.804;24.072;2023-04-23T07:52:59;97103.44;;;29.20;19.53
35878;BME280;21982;49.804;24.072;2023-04-23T07:55:24;97048.94;;;29.29;19.01
35878;BME280;21982;49.804;24.072;2023-04-23T07:57:50;97041.72;;;29.81;18.63
35878;BME280;21982;49.804;24.072;2023-04-23T08:00:15;97117.16;;;30.34;18.08
35878;BME280;21982;49.804;24.072;2023-04-23T08:02:41;97117.06;;;29.91;18.00
35878;BME280;21982;49.804;24.072;2023-04-23T08:05:07;97006.22;;;29.24;18.36
35878;BME280;21982;49.804;24.072;2023-04-23T08:07:32;97107.00;;;30.00;18.30
35878;BME280;21982;49.804;24.072;2023-04-23T08:09:58;97109.91;;;30.21;18.32
35878;BME280;21982;49.804;24.072;2023-04-23T08:12:28;97089.50;;;30.10;18.50
35878;BME280;21982;49.804;24.072;2023-04-23T08:14:55;97110.09;;;30.33;18.23
35878;BME280;21982;49.804;24.072;2023-04-23T08:17:20;97108.34;;;30.37;18.04
35878;BME280;21982;49.804;24.072;2023-04-23T08:19:45;97109.31;;;30.41;18.07
35878;BME280;21982;49.804;24.072;2023-04-23T08:22:11;97108.66;;;30.44;18.14
35878;BME280;21982;49.804;24.072;2023-04-23T08:24:37;97007.38;;;29.72;17.92
35878;BME280;21982;49.804;24.072;2023-04-23T08:27:02;97044.00;;;29.96;18.08
35878;BME280;21982;49.804;24.072;2023-04-23T08:29:28;97024.06;;;29.87;17.96
35878;BME280;21982;49.804;24.072;2023-04-23T08:34:28;97098.72;;;30.57;18.10
35878;BME280;21982;49.804;24.072;2023-04-23T08:36:54;97103.69;;;30.81;17.86
35878;BME280;21982;49.804;24.072;2023-04-23T08:39:19;97001.00;;;30.11;17.77
35878;BME280;21982;49.804;24.072;2023-04-23T08:41:50;96974.78;;;29.92;17.69
35878;BME280;21982;49.804;24.072;2023-04-23T08:44:20;96902.06;;;28.96;17.95
35878;BME280;21982;49.804;24.072;2023-04-23T08:46:47;97104.44;;;30.04;18.01
35878;BME280;21982;49.804;24.072;2023-04-23T08:49:15;97107.97;;;30.04;18.53
35878;BME280;21982;49.804;24.072;2023-04-23T08:51:53;97028.56;;;29.83;18.05
35878;BME280;21982;49.804;24.072;2023-04-23T08:54:26;97039.56;;;29.44;17.86
35878;BME280;21982;49.804;24.072;2023-04-23T08:56:54;97079.78;;;29.38;18.47
35878;BME280;21982;49.804;24.072;2023-04-23T08:59:21;97071.19;;;29.45;18.37
35878;BME280;21982;49.804;24.072;2023-04-23T09:01:47;97021.13;;;29.18;18.41
35878;BME280;21982;49.804;24.072;2023-04-23T09:04:12;97009.03;;;28.80;18.49
35878;BME280;21982;49.804;24.072;2023-04-23T09:06:41;97065.66;;;29.05;19.05
35878;BME280;21982;49.804;24.072;2023-04-23T09:09:07;97084.78;;;29.14;18.62
35878;BME280;21982;49.804;24.072;2023-04-23T09:11:35;97080.13;;;29.14;19.19
35878;BME280;21982;49.804;24.072;2023-04-23T09:14:01;97079.00;;;29.07;18.54
35878;BME280;21982;49.804;24.072;2023-04-23T09:16:27;97090.59;;;29.21;18.30
35878;BME280;21982;49.804;24.072;2023-04-23T09:18:52;96919.72;;;28.68;18.08
35878;BME280;21982;49.804;24.072;2023-04-23T09:21:19;97095.50;;;29.72;18.30
35878;BME280;21982;49.804;24.072;2023-04-23T09:23:44;96967.31;;;28.93;18.05
35878;BME280;21982;49.804;24.072;2023-04-23T09:26:18;97068.78;;;30.26;18.12
35878;BME280;21982;49.804;24.072;2023-04-23T09:28:48;97067.53;;;30.58;17.31
35878;BME280;21982;49.804;24.072;2023-04-23T09:31:18;97067.84;;;30.74;17.64
35878;BME280;21982;49.804;24.072;2023-04-23T09:33:49;96963.38;;;30.16;17.63
35878;BME280;21982;49.804;24.072;2023-04-23T09:36:15;97048.88;;;30.77;17.43
35878;BME280;21982;49.804;24.072;2023-04-23T09:38:41;97064.72;;;31.18;17.42
35878;BME280;21982;49.804;24.072;2023-04-23T09:41:26;97059.22;;;31.56;17.20
35878;BME280;21982;49.804;24.072;2023-04-23T09:43:52;97065.50;;;31.57;16.42
35878;BME280;21982;49.804;24.072;2023-04-23T09:46:31;96969.66;;;30.17;16.60
35878;BME280;21982;49.804;24.072;2023-04-23T09:48:56;96988.41;;;29.84;17.36
35878;BME280;21982;49.804;24.072;2023-04-23T09:51:24;97020.72;;;30.77;16.67
35878;BME280;21982;49.804;24.072;2023-04-23T09:53:49;97045.34;;;30.59;16.46
35878;BME280;21982;49.804;24.072;2023-04-23T09:56:15;97036.50;;;30.45;16.68
35878;BME280;21982;49.804;24.072;2023-04-23T09:58:40;97056.69;;;29.05;17.01
35878;BME280;21982;49.804;24.072;2023-04-23T10:01:06;97049.38;;;27.33;18.22
35878;BME280;21982;49.804;24.072;2023-04-23T10:03:32;97047.38;;;26.93;18.72
35878;BME280;21982;49.804;24.072;2023-04-23T10:05:57;97057.63;;;28.33;18.38
35878;BME280;21982;49.804;24.072;2023-04-23T10:08:23;97052.53;;;29.07;17.74
35878;BME280;21982;49.804;24.072;2023-04-23T10:10:49;96992.66;;;28.71;17.24
35878;BME280;21982;49.804;24.072;2023-04-23T10:13:16;97042.91;;;27.57;18.13
35878;BME280;21982;49.804;24.072;2023-04-23T10:15:45;96949.38;;;26.43;18.38
35878;BME280;21982;49.804;24.072;2023-04-23T10:18:15;96993.47;;;27.00;18.71
35878;BME280;21982;49.804;24.072;2023-04-23T10:20:41;97038.81;;;28.67;18.36
35878;BME280;21982;49.804;24.072;2023-04-23T10:23:08;96969.00;;;29.20;17.01
35878;BME280;21982;49.804;24.072;2023-04-23T10:25:35;96962.88;;;29.88;16.72
35878;BME280;21982;49.804;24.072;2023-04-23T10:28:03;96997.28;;;30.58;16.41
35878;BME280;21982;49.804;24.072;2023-04-23T10:30:32;96980.56;;;30.34;16.37
35878;BME280;21982;49.804;24.072;2023-04-23T10:32:59;96898.75;;;29.25;16.71
35878;BME280;21982;49.804;24.072;2023-04-23T10:35:25;97026.56;;;30.15;16.75
35878;BME280;21982;49.804;24.072;2023-04-23T10:37:51;97022.31;;;30.52;16.66
35878;BME280;21982;49.804;24.072;2023-04-23T10:40:28;97007.91;;;31.07;16.30
35878;BME280;21982;49.804;24.072;2023-04-23T10:42:55;96963.78;;;30.79;16.20
35878;BME280;21982;49.804;24.072;2023-04-23T10:45:20;96975.59;;;31.00;15.93
35878;BME280;21982;49.804;24.072;2023-04-23T10:47:46;96899.09;;;31.21;15.56
35878;BME280;21982;49.804;24.072;2023-04-23T10:52:45;96982.31;;;31.49;15.20
35878;BME280;21982;49.804;24.072;2023-04-23T10:55:18;96966.16;;;30.89;15.67
35878;BME280;21982;49.804;24.072;2023-04-23T11:00:26;97007.28;;;31.18;15.54
35878;BME280;21982;49.804;24.072;2023-04-23T11:02:52;97004.31;;;30.51;16.06
35878;BME280;21982;49.804;24.072;2023-04-23T11:05:17;96904.63;;;29.76;15.67
35878;BME280;21982;49.804;24.072;2023-04-23T11:08:02;96950.53;;;29.82;15.83
35878;BME280;21982;49.804;24.072;2023-04-23T11:10:30;96992.75;;;30.54;15.76
35878;BME280;21982;49.804;24.072;2023-04-23T11:12:55;96962.53;;;30.50;16.14
35878;BME280;21982;49.804;24.072;2023-04-23T11:15:21;96927.59;;;30.00;16.09
35878;BME280;21982;49.804;24.072;2023-04-23T11:20:20;96933.19;;;29.70;16.83
35878;BME280;21982;49.804;24.072;2023-04-23T11:22:52;96990.72;;;31.06;15.84
35878;BME280;21982;49.804;24.072;2023-04-23T11:25:25;96983.13;;;31.50;16.03
35878;BME280;21982;49.804;24.072;2023-04-23T11:27:55;96956.31;;;31.35;15.96
35878;BME280;21982;49.804;24.072;2023-04-23T11:30:28;96918.88;;;31.26;15.97
35878;BME280;21982;49.804;24.072;2023-04-23T11:32:55;96914.75;;;30.74;15.86
35878;BME280;21982;49.804;24.072;2023-04-23T11:35:22;96984.88;;;30.70;16.06
35878;BME280;21982;49.804;24.072;2023-04-23T11:38:07;96983.50;;;30.12;16.21
35878;BME280;21982;49.804;24.072;2023-04-23T11:40:34;96959.34;;;29.62;16.42
35878;BME280;21982;49.804;24.072;2023-04-23T11:43:01;96989.56;;;30.17;16.06
35878;BME280;21982;49.804;24.072;2023-04-23T11:45:29;96918.09;;;29.63;16.40
35878;BME280;21982;49.804;24.072;2023-04-23T11:47:57;96976.84;;;30.56;15.83
35878;BME280;21982;49.804;24.072;2023-04-23T11:50:31;96909.09;;;31.46;15.31
35878;BME280;21982;49.804;24.072;2023-04-23T11:53:04;96975.94;;;32.49;14.85
35878;BME280;21982;49.804;24.072;2023-04-23T11:55:30;96969.03;;;32.10;15.53
35878;BME280;21982;49.804;24.072;2023-04-23T11:57:56;96884.91;;;31.27;15.32
35878;BME280;21982;49.804;24.072;2023-04-23T12:00:25;96848.31;;;30.35;15.64
35878;BME280;21982;49.804;24.072;2023-04-23T12:02:58;96952.94;;;30.44;16.07
35878;BME280;21982;49.804;24.072;2023-04-23T12:07:53;96954.69;;;29.88;16.25
35878;BME280;21982;49.804;24.072;2023-04-23T12:10:22;96845.22;;;29.47;16.14
35878;BME280;21982;49.804;24.072;2023-04-23T12:12:51;96819.84;;;29.38;15.82
35878;BME280;21982;49.804;24.072;2023-04-23T12:15:17;96948.41;;;30.48;15.77
35878;BME280;21982;49.804;24.072;2023-04-23T12:17:47;96917.09;;;30.46;15.70
35878;BME280;21982;49.804;24.072;2023-04-23T12:20:20;96794.13;;;29.99;15.73
35878;BME280;21982;49.804;24.072;2023-04-23T12:22:46;96809.50;;;30.50;15.44
35878;BME280;21982;49.804;24.072;2023-04-23T12:25:12;96821.59;;;30.03;15.52
35878;BME280;21982;49.804;24.072;2023-04-23T12:27:43;96931.56;;;30.38;15.74
35878;BME280;21982;49.804;24.072;2023-04-23T12:30:09;96911.00;;;30.23;15.88
35878;BME280;21982;49.804;24.072;2023-04-23T12:32:36;96862.56;;;30.03;16.30
35878;BME280;21982;49.804;24.072;2023-04-23T12:35:02;96791.13;;;29.49;16.23
35878;BME280;21982;49.804;24.072;2023-04-23T12:37:35;96837.97;;;29.33;15.99
35878;BME280;21982;49.804;24.072;2023-04-23T12:40:02;96873.41;;;28.77;16.55
35878;BME280;21982;49.804;24.072;2023-04-23T12:42:31;96844.13;;;28.43;16.33
35878;BME280;21982;49.804;24.072;2023-04-23T12:45:04;96914.47;;;29.20;16.46
35878;BME280;21982;49.804;24.072;2023-04-23T12:47:31;96911.19;;;29.57;16.12
35878;BME280;21982;49.804;24.072;2023-04-23T12:49:56;96908.28;;;29.54;16.85
35878;BME280;21982;49.804;24.072;2023-04-23T12:52:22;96907.31;;;29.50;16.30
35878;BME280;21982;49.804;24.072;2023-04-23T12:54:47;96862.81;;;29.06;16.32
35878;BME280;21982;49.804;24.072;2023-04-23T12:57:16;96717.19;;;27.31;17.06
35878;BME280;21982;49.804;24.072;2023-04-23T12:59:46;96906.34;;;27.82;17.18
35878;BME280;21982;49.804;24.072;2023-04-23T13:02:11;96873.66;;;27.24;17.65
35878;BME280;21982;49.804;24.072;2023-04-23T13:04:37;96894.72;;;27.04;17.34